Time;durP1;ratioP1;P1;durP2;ratioP2;P2;SDS_P1;SDS_P2;PMS_P1;PMS_P2;Temp;Humidity;BMP_temperature;BMP_pressure;BME280_temperature;BME280_humidity;BME280_pressure;Samples;Min_cycle;Max_cycle;Signal;HPM_P1;HPM_P2
2022/12/15 05:44:24;;;;;;;18.52;11.55;;;;;;;-1.64;100.00;100201.20;1726292;83;21252;-45
2022/12/15 05:46:51;;;;;;;20.17;12.30;;;;;;;-1.62;100.00;100200.89;1728961;83;21104;-46
2022/12/15 05:49:18;;;;;;;19.27;11.33;;;;;;;-1.58;100.00;100198.45;1728756;83;20998;-46
2022/12/15 05:51:46;;;;;;;18.80;12.73;;;;;;;-1.57;100.00;100191.22;1717565;83;21079;-47
2022/12/15 05:54:16;;;;;;;18.85;11.38;;;;;;;-1.56;100.00;100201.58;1694933;83;21108;-48
2022/12/15 05:56:42;;;;;;;20.48;14.00;;;;;;;-1.56;100.00;100198.14;1678152;84;21087;-48
2022/12/15 05:59:08;;;;;;;22.35;13.28;;;;;;;-1.58;100.00;100195.47;1702587;82;21024;-40
2022/12/15 06:01:35;;;;;;;20.40;12.25;;;;;;;-1.57;100.00;100196.35;1706067;82;21089;-40
2022/12/15 06:04:02;;;;;;;18.73;12.45;;;;;;;-1.56;100.00;100192.59;1690997;82;21036;-39
2022/12/15 06:06:29;;;;;;;20.40;12.73;;;;;;;-1.56;100.00;100184.91;1704548;82;21062;-39
2022/12/15 06:08:57;;;;;;;24.50;12.07;;;;;;;-1.58;100.00;100199.33;1701123;82;21040;-39
2022/12/15 06:11:23;;;;;;;18.17;11.75;;;;;;;-1.59;100.00;100187.72;1706827;82;21653;-39
2022/12/15 06:13:50;;;;;;;21.10;12.13;;;;;;;-1.60;100.00;100185.55;1709080;82;21008;-40
2022/12/15 06:16:20;;;;;;;19.90;12.53;;;;;;;-1.58;100.00;100181.77;1699959;82;21511;-48
2022/12/15 06:18:56;;;;;;;21.25;12.55;;;;;;;-1.57;100.00;100187.38;1709045;83;21579;-39
2022/12/15 06:21:30;;;;;;;18.77;12.50;;;;;;;-1.56;100.00;100177.20;1706420;83;21151;-39
2022/12/15 06:23:57;;;;;;;19.73;12.88;;;;;;;-1.55;100.00;100181.52;1695983;83;21661;-48
2022/12/15 06:29:36;;;;;;;19.10;12.50;;;;;;;-1.50;100.00;100177.89;1782471;78;23156;-41
2022/12/15 06:32:04;;;;;;;20.45;12.50;;;;;;;-1.53;100.00;100174.77;1748059;79;21709;-47
2022/12/15 06:34:36;;;;;;;19.60;12.68;;;;;;;-1.51;100.00;100177.39;1720317;80;21021;-40
2022/12/15 06:37:04;;;;;;;23.25;13.40;;;;;;;-1.50;100.00;100164.66;1741279;80;21077;-40
2022/12/15 06:39:32;;;;;;;20.72;12.70;;;;;;;-1.50;100.00;100159.52;1739430;80;21029;-40
2022/12/15 06:41:59;;;;;;;19.37;12.37;;;;;;;-1.48;100.00;100153.16;1729838;80;21666;-40
2022/12/15 06:44:26;;;;;;;23.38;13.08;;;;;;;-1.48;100.00;100159.58;1735605;80;21040;-48
2022/12/15 06:46:52;;;;;;;19.98;12.47;;;;;;;-1.47;100.00;100159.64;1735772;80;21068;-47
2022/12/15 06:49:25;;;;;;;21.17;12.43;;;;;;;-1.46;100.00;100154.98;1731001;80;20970;-41
2022/12/15 06:51:52;;;;;;;20.68;11.93;;;;;;;-1.44;100.00;100151.22;1735035;80;21718;-48
2022/12/15 06:54:25;;;;;;;17.07;12.25;;;;;;;-1.40;100.00;100155.25;1725589;80;21095;-41
2022/12/15 06:56:55;;;;;;;18.07;11.12;;;;;;;-1.38;100.00;100151.50;1733879;80;21204;-51
2022/12/15 06:59:36;;;;;;;19.90;12.13;;;;;;;-1.36;100.00;100155.87;1737004;80;21025;-40
2022/12/15 07:02:07;;;;;;;25.45;14.05;;;;;;;-1.35;100.00;100146.48;1711531;81;21879;-39
2022/12/15 07:04:40;;;;;;;22.20;12.65;;;;;;;-1.33;100.00;100155.16;1722822;80;21077;-41
2022/12/15 07:07:10;;;;;;;23.10;14.55;;;;;;;-1.34;100.00;100162.36;1728221;80;21713;-48
2022/12/15 07:09:41;;;;;;;23.75;13.68;;;;;;;-1.33;100.00;100161.58;1733349;80;21034;-42
2022/12/15 07:12:10;;;;;;;20.10;12.95;;;;;;;-1.33;100.00;100161.58;1709119;81;21546;-41
2022/12/15 07:14:45;;;;;;;19.67;12.05;;;;;;;-1.31;100.00;100159.06;1725280;81;21048;-48
2022/12/15 07:17:13;;;;;;;20.65;13.78;;;;;;;-1.30;100.00;100156.56;1722533;81;21671;-51
2022/12/15 07:19:42;;;;;;;20.37;12.88;;;;;;;-1.27;100.00;100165.70;1739092;80;21026;-49
2022/12/15 07:22:09;;;;;;;20.55;12.18;;;;;;;-1.23;100.00;100162.84;1709694;80;21093;-40
2022/12/15 07:24:36;;;;;;;21.60;13.58;;;;;;;-1.22;100.00;100156.89;1733823;80;21425;-41
2022/12/15 07:27:03;;;;;;;24.60;13.13;;;;;;;-1.21;100.00;100155.70;1732048;80;21026;-40
2022/12/15 07:29:37;;;;;;;22.27;13.13;;;;;;;-1.19;100.00;100151.50;1746334;80;21797;-43
2022/12/15 07:32:06;;;;;;;23.73;14.53;;;;;;;-1.18;100.00;100137.85;1698945;81;21642;-40
2022/12/15 07:34:33;;;;;;;22.05;12.25;;;;;;;-1.13;100.00;100153.47;1722253;80;21045;-49
2022/12/15 07:37:00;;;;;;;23.20;13.98;;;;;;;-1.11;100.00;100141.16;1728221;81;21532;-40
2022/12/15 07:39:44;;;;;;;20.23;12.82;;;;;;;-1.07;100.00;100151.17;1734114;80;21354;-40
2022/12/15 07:42:14;;;;;;;20.80;13.43;;;;;;;-1.04;100.00;100142.70;1732202;80;22237;-49
2022/12/15 07:44:41;;;;;;;19.02;13.18;;;;;;;-1.05;100.00;100137.98;1724456;80;21850;-49
2022/12/15 07:47:22;;;;;;;22.05;12.35;;;;;;;-1.01;100.00;100131.30;1731668;80;21060;-42
2022/12/15 07:49:49;;;;;;;19.05;12.20;;;;;;;-0.99;100.00;100130.95;1728446;80;21034;-49
2022/12/15 07:52:16;;;;;;;20.95;11.45;;;;;;;-0.96;100.00;100128.12;1735946;80;21119;-41
2022/12/15 07:54:45;;;;;;;18.75;12.50;;;;;;;-0.91;100.00;100125.34;1739028;80;21002;-42
2022/12/15 07:57:15;;;;;;;21.97;11.93;;;;;;;-0.87;100.00;100118.25;1734729;80;21076;-49
2022/12/15 07:59:48;;;;;;;21.65;13.60;;;;;;;-0.84;100.00;100118.77;1705413;81;21060;-50
2022/12/15 10:04:27;;;;;;;19.23;12.45;;;;;;;0.46;100.00;100037.75;1853799;75;23307;-40
2022/12/15 10:07:00;;;;;;;21.55;12.88;;;;;;;0.48;100.00;100036.13;1825037;76;21019;-48
2022/12/15 10:09:30;;;;;;;22.05;12.35;;;;;;;0.49;100.00;100026.29;1813853;78;21059;-50
2022/12/15 10:12:14;;;;;;;16.90;10.95;;;;;;;0.53;100.00;100038.46;1790011;78;21110;-50
2022/12/15 10:15:24;;;;;;;22.93;12.40;;;;;;;0.60;100.00;100033.98;1826271;76;21529;-49
2022/12/15 10:18:10;;;;;;;19.52;12.15;;;;;;;0.64;100.00;100043.59;1781618;79;21024;-41
2022/12/15 10:20:44;;;;;;;18.40;12.65;;;;;;;0.65;100.00;100041.88;1748770;80;21024;-48
2022/12/15 10:23:16;;;;;;;17.48;12.18;;;;;;;0.60;100.00;100030.55;1814970;78;21011;-41
2022/12/15 10:26:05;;;;;;;18.95;12.73;;;;;;;0.52;100.00;100036.30;1818234;77;20929;-48
2022/12/15 10:28:46;;;;;;;16.70;11.25;;;;;;;0.53;100.00;100032.90;1803490;77;21028;-47
2022/12/15 10:31:40;;;;;;;18.90;12.30;;;;;;;0.53;100.00;100021.73;1751718;81;21392;-47
2022/12/15 10:34:12;;;;;;;17.80;12.18;;;;;;;0.47;100.00;100026.25;1748113;81;21520;-48
2022/12/15 10:36:42;;;;;;;18.85;13.13;;;;;;;0.47;100.00;100021.51;1716258;81;21546;-48
2022/12/15 10:39:09;;;;;;;17.15;12.60;;;;;;;0.48;100.00;100019.39;1685382;81;21004;-48
2022/12/15 10:41:39;;;;;;;18.77;12.10;;;;;;;0.50;100.00;100007.44;1740988;81;21581;-39
2022/12/15 10:44:24;;;;;;;18.77;12.23;;;;;;;0.51;100.00;100006.20;1761936;79;20968;-40
2022/12/15 10:46:56;;;;;;;20.00;11.45;;;;;;;0.56;100.00;100005.50;1740847;81;21060;-40
2022/12/15 10:49:24;;;;;;;18.10;13.05;;;;;;;0.55;100.00;99995.61;1754274;79;21431;-40
2022/12/15 10:51:56;;;;;;;20.60;12.25;;;;;;;0.54;100.00;99995.16;1700805;82;21125;-48
2022/12/15 10:54:23;;;;;;;20.37;14.03;;;;;;;0.54;100.00;99995.16;1696435;82;20976;-49
2022/12/15 10:57:57;;;;;;;22.80;14.18;;;;;;;0.57;100.00;99994.37;1759575;79;21054;-49
2022/12/15 11:00:30;;;;;;;21.20;14.20;;;;;;;0.61;100.00;99991.09;1757928;79;21079;-42
2022/12/15 11:02:57;;;;;;;24.23;14.73;;;;;;;0.64;100.00;99980.88;1746904;81;21076;-41
2022/12/15 11:05:24;;;;;;;22.15;14.55;;;;;;;0.65;100.00;99977.52;1735191;81;21372;-42
2022/12/15 11:08:13;;;;;;;21.85;14.60;;;;;;;0.62;100.00;99970.95;1751077;78;21211;-47
2022/12/15 11:13:42;;;;;;;20.77;13.90;;;;;;;0.58;100.00;99979.38;1798201;78;21503;-47
2022/12/15 11:16:17;;;;;;;21.80;15.80;;;;;;;0.55;100.00;99981.88;1767657;78;20984;-39
2022/12/15 11:18:52;;;;;;;20.27;14.53;;;;;;;0.58;100.00;99984.53;1795450;78;21518;-47
2022/12/15 11:21:32;;;;;;;24.10;14.58;;;;;;;0.64;100.00;99979.59;1771395;79;21806;-39
2022/12/15 11:24:20;;;;;;;24.70;14.80;;;;;;;0.64;100.00;99984.36;1775643;78;21023;-47
2022/12/15 11:27:16;;;;;;;24.10;15.88;;;;;;;0.60;100.00;99990.22;1743243;81;21186;-47
2022/12/15 11:30:03;;;;;;;27.87;15.80;;;;;;;0.60;100.00;99990.63;1759070;80;20971;-47
2022/12/15 11:32:35;;;;;;;23.55;15.53;;;;;;;0.54;100.00;99986.14;1759418;80;21012;-47
2022/12/15 11:35:02;;;;;;;22.30;14.90;;;;;;;0.55;100.00;99980.58;1734195;82;20953;-48
2022/12/15 11:37:39;;;;;;;20.15;14.15;;;;;;;0.56;100.00;99981.91;1759389;80;21051;-48
2022/12/15 11:40:35;;;;;;;23.77;15.83;;;;;;;0.55;100.00;99974.14;1793636;78;20988;-47
2022/12/15 11:43:25;;;;;;;22.42;14.73;;;;;;;0.53;100.00;99980.53;1789029;79;21867;-48
2022/12/15 11:46:16;;;;;;;22.30;14.03;;;;;;;0.52;100.00;99984.81;1788596;78;21023;-47
2022/12/15 11:49:05;;;;;;;18.70;13.40;;;;;;;0.58;100.00;99975.52;1650426;85;21664;-47
2022/12/15 11:52:04;;;;;;;20.90;14.13;;;;;;;0.58;100.00;99971.66;1627947;86;21393;-47
2022/12/15 11:54:48;;;;;;;23.47;14.33;;;;;;;0.51;100.00;99975.31;1621893;86;21044;-47
